Tarnov, Nebraska
Current Conditions -  °F | °C
As of 9:35 PM on Friday 19 Dec 2014 (Local Time) from KOLU Reporting Station
Overcast Overcast  
Wind Chill: 26°   Ceiling: 700
Heat Index: 34°   Visibility: 5mi
Dew Point: 28°   Wind: 9mph
Humidity: 81%   Direction: 190°S
Pressure: 30.1"   Gusts: NA
Location:  41.6572°N, 97.512°W
Report Text: KOLU 200335Z AUTO 19008KT 5SM OVC007 01/M02 A3010 RMK AO1
Loading
Personal Weather Stations






























Interactive Weather Map New forecast layout! Learn more

10-Day Weather Forecast

Advertisements
Track Severe Weather on mobile